首页
METAR-TAF:

METAR-TAF

机场 :

Abraham Lincoln Capital Airport

斯普林菲尔德, 伊利诺伊州, 美国

纬度: 39-50-43N, 经度: 089-41-02W, 海拔: 182米

当前天气观测

该预报发布于1小时和2分钟前的00:52 UTC
风速6节,风向东转东南
温度 1°C
湿度 80%
气压 1023 hPa
能見度: 9.7公里
天空无云

METAR: KSPI 170052Z 12006KT 6SM HZ CLR 01/M02 A3021 RMK AO2 SLP238 T00111022

时间: 19:54 (01:54 UTC)

预报

该预报发布于2小时和34分钟前的23:20 UTC
预报有效从17日的 00点(UTC)到 17日的 24点(UTC)
风速6节,风向东转东南
能見度: 10公里
少量云层高于25000英尺
短暂存在
从 17日的 00点(UTC)到 17日的 02点(UTC)
能見度: 8.0公里
从 17日的 1500点(UTC)
风速7节,风向
能見度: 10公里
阴天层高于10000英尺
附近有阵雨
从 17日的 2100点(UTC)
风速5节,风向南转西南
能見度: 8.0公里
阴天层高于3500英尺
小雨

TAF: KSPI 162320Z 1700/1724 11006KT P6SM FEW250 TEMPO 1700/1702 5SM HZ FM171500 17007KT P6SM VCSH OVC100 FM172100 20005KT 5SM -RA OVC035

超过4000个机场的气象观测和天气预报(METAR&TAF报告)。

可查询的气象台以黄色和红色小点在地图上表示。

将鼠标移到小点上方,可查看气象台名称。

然后点击查看天气观测和预报。

如需切换地图:点击带黑十字的绿色按钮放大地图;点击带横线的绿色按钮缩小地图;或者点击绿色箭头查看邻近地区的地图。


METAR-TAF: